Buochs Airport LSZC

Flugplatz Daten

Name: Buochs Airport

Ident: LSZC

Lat: 46,97444444

Long: 8,396944444

Platzhöhe: 1475 ft

IataCode: BXO

City: Buochs

Homepage: http://www.airportbuochs.ch/

Metar

2021/08/02 09:20
LSZC 020920Z 08003KT 020V140 9999 SCT037 18/12 Q1017

Taf

Gewünschte Webcam nicht vorhanden? Dann fügen Sie eine hinzu. Sie wird dann so schnell wie möglich freigeschaltet
Url: Title: